TDA weather

Trinidad Airport
Trinidad, Casanare Department, Colombia

Public forecast

Using degrees Celsius for public forecast. Weather courtesy of forecast.io.

Closest aviation weather report (METAR) to Trinidad Airport

Report is more than 6 hours old.

Closest report is El Yopal Airport, 43.7 nm (80.9 km) W. Retrieved 2019/12/03 11:00 UTC (7 days ago):

SKYP 031100Z 35007KT 9999 FEW040 25/19 A2991

Closest aviation forecast (TAF) to Trinidad Airport

Closest forecast is Palonegro Airport, 136.4 nm (252.5 km) NW. Retrieved 2019/12/09 18:30 UTC (5 hours ago):

TAF SKBG 091630Z 0918/1018 33008KT 9999 SCT015 TEMPO 0920/0922 6000 VCSH SCT013TCU TEMPO 1010/1012 4000 BCFG -DZ SCT010 TX27/0919Z TN18/1011Z